Time;durP1;ratioP1;P1;durP2;ratioP2;P2;SDS_P1;SDS_P2;PMS_P1;PMS_P2;Temp;Humidity;BMP_temperature;BMP_pressure;BME280_temperature;BME280_humidity;BME280_pressure;Samples;Min_cycle;Max_cycle;Signal;HPM_P1;HPM_P2
2023/12/07 00:00:46;;;;;;;35.88;27.25;;;;;;;5.45;82.08;94236.03;4174256;28;20055;-68
2023/12/07 00:02:48;;;;;;;33.92;25.98;;;;;;;5.54;81.16;94229.97;4176262;28;20044;-69
2023/12/07 00:04:50;;;;;;;32.17;25.75;;;;;;;5.71;80.37;94240.63;4173397;28;20049;-69
2023/12/07 00:06:52;;;;;;;32.70;25.63;;;;;;;5.74;79.92;94235.97;4176829;28;20059;-70
2023/12/07 00:08:54;;;;;;;31.83;25.73;;;;;;;5.85;79.76;94240.19;4173308;28;20050;-67
2023/12/07 00:10:56;;;;;;;34.72;26.48;;;;;;;5.91;79.23;94233.56;4170081;28;20089;-69
2023/12/07 00:12:58;;;;;;;32.40;25.70;;;;;;;5.93;78.67;94235.06;4165553;28;20050;-69
2023/12/07 00:15:00;;;;;;;34.25;26.27;;;;;;;6.03;78.70;94242.88;4171789;28;20057;-68
2023/12/07 00:17:02;;;;;;;31.73;24.73;;;;;;;6.10;78.54;94243.94;4176425;28;20076;-68
2023/12/07 00:19:04;;;;;;;32.75;25.60;;;;;;;6.11;78.56;94234.38;4174802;28;20041;-67
2023/12/07 00:21:08;;;;;;;33.85;26.35;;;;;;;6.19;78.09;94242.25;4169155;28;20059;-69
2023/12/07 00:23:10;;;;;;;36.13;26.25;;;;;;;6.04;77.88;94239.31;4172970;28;20045;-67
2023/12/07 00:25:13;;;;;;;35.38;27.05;;;;;;;5.86;77.90;94235.78;4176867;28;20132;-68
2023/12/07 00:27:14;;;;;;;36.22;26.95;;;;;;;5.66;78.31;94245.44;4173693;28;20059;-67
2023/12/07 00:29:16;;;;;;;34.03;26.55;;;;;;;5.57;79.33;94243.66;4175749;28;20055;-68
2023/12/07 00:31:20;;;;;;;34.35;26.08;;;;;;;5.64;79.35;94242.16;4179453;28;20055;-67
2023/12/07 00:33:22;;;;;;;32.30;26.25;;;;;;;5.78;79.95;94239.09;4177718;28;20049;-69
2023/12/07 00:35:23;;;;;;;36.92;26.92;;;;;;;5.89;79.41;94241.53;4194914;28;20044;-67
2023/12/07 00:37:27;;;;;;;37.85;27.60;;;;;;;6.01;78.92;94233.59;4179879;28;20091;-67
2023/12/07 00:39:29;;;;;;;33.55;26.98;;;;;;;6.08;78.13;94232.03;4180898;28;20044;-68
2023/12/07 00:41:30;;;;;;;38.13;27.02;;;;;;;6.17;77.98;94236.38;4179059;28;20484;-70
2023/12/07 00:43:34;;;;;;;35.95;28.13;;;;;;;6.25;77.13;94239.09;4169438;28;20052;-67
2023/12/07 00:45:35;;;;;;;36.45;27.52;;;;;;;6.31;77.13;94242.91;4180328;28;20057;-67
2023/12/07 00:47:37;;;;;;;36.58;28.45;;;;;;;6.34;77.24;94234.81;4180259;28;20053;-68
2023/12/07 00:49:40;;;;;;;37.13;27.27;;;;;;;6.38;76.90;94240.53;4192792;28;20483;-68
2023/12/07 00:51:43;;;;;;;39.90;29.55;;;;;;;6.34;77.16;94234.81;4164569;28;20495;-69
2023/12/07 00:53:45;;;;;;;40.15;28.98;;;;;;;6.36;76.90;94233.69;4170497;28;20501;-68
2023/12/07 00:55:46;;;;;;;38.10;27.77;;;;;;;6.43;76.89;94228.75;4174272;28;20073;-70
2023/12/07 00:57:48;;;;;;;39.38;28.40;;;;;;;6.43;76.75;94222.69;4172163;28;20303;-69
2023/12/07 00:59:50;;;;;;;37.92;26.98;;;;;;;6.47;76.45;94232.66;4179246;28;20055;-67
2023/12/07 01:01:52;;;;;;;36.53;27.23;;;;;;;6.48;76.67;94223.09;4179242;28;20049;-67
2023/12/07 01:03:54;;;;;;;37.85;27.52;;;;;;;6.52;76.37;94230.47;4174173;28;20057;-69
2023/12/07 01:05:56;;;;;;;36.22;25.95;;;;;;;6.54;76.12;94228.53;4169702;28;20049;-70
2023/12/07 01:07:59;;;;;;;43.03;27.83;;;;;;;6.56;76.38;94225.81;4181518;28;20474;-67
2023/12/07 01:10:01;;;;;;;39.35;27.65;;;;;;;6.54;76.12;94222.53;4179337;28;20052;-67
2023/12/07 01:12:04;;;;;;;37.13;27.25;;;;;;;6.51;76.60;94223.63;4176906;28;20300;-67
2023/12/07 01:14:06;;;;;;;37.80;27.30;;;;;;;6.40;76.55;94223.00;4178307;28;20151;-68
2023/12/07 01:16:08;;;;;;;35.50;27.48;;;;;;;6.32;76.70;94224.56;4177939;28;20549;-69
2023/12/07 01:18:10;;;;;;;38.83;27.38;;;;;;;6.34;77.34;94232.19;4191535;28;20064;-67
2023/12/07 01:20:13;;;;;;;36.88;26.67;;;;;;;6.31;77.43;94227.28;4165353;28;20059;-68
2023/12/07 01:22:15;;;;;;;38.00;27.98;;;;;;;6.31;76.90;94227.28;4170446;28;20580;-69
2023/12/07 01:24:17;;;;;;;38.35;27.63;;;;;;;6.33;77.47;94225.38;4175574;28;20135;-67
2023/12/07 01:26:19;;;;;;;36.03;27.48;;;;;;;6.36;77.23;94230.28;4178233;28;20089;-67
2023/12/07 01:28:21;;;;;;;36.95;27.40;;;;;;;6.37;77.11;94229.31;4180183;28;20079;-70
2023/12/07 01:30:23;;;;;;;38.72;28.42;;;;;;;6.32;76.47;94229.75;4177868;28;20099;-69
2023/12/07 01:32:25;;;;;;;37.88;28.63;;;;;;;6.25;76.72;94225.28;4179211;28;20084;-68
2023/12/07 01:34:28;;;;;;;41.78;29.38;;;;;;;6.18;77.13;94217.22;4184606;28;20059;-68
2023/12/07 01:36:29;;;;;;;39.75;28.58;;;;;;;6.14;77.09;94219.28;4176332;28;20067;-69
2023/12/07 01:38:31;;;;;;;43.35;30.02;;;;;;;6.07;77.46;94217.41;4172409;28;20057;-68
2023/12/07 01:40:34;;;;;;;40.90;29.83;;;;;;;6.01;77.67;94218.00;4192833;28;20257;-67
2023/12/07 01:42:37;;;;;;;39.73;29.33;;;;;;;5.94;78.14;94221.16;4177771;28;20060;-68
2023/12/07 01:44:39;;;;;;;42.35;30.40;;;;;;;5.81;78.80;94217.19;4178633;28;20051;-68
2023/12/07 01:46:42;;;;;;;42.03;30.92;;;;;;;5.45;80.08;94227.41;4178256;28;20056;-69
2023/12/07 01:48:44;;;;;;;49.17;31.75;;;;;;;5.18;81.15;94226.34;4180072;28;20063;-67
2023/12/07 01:50:47;;;;;;;48.85;34.15;;;;;;;4.76;82.60;94224.03;4178505;28;20052;-69
2023/12/07 01:52:50;;;;;;;49.70;34.75;;;;;;;4.69;83.53;94225.53;4176914;28;20072;-68
2023/12/07 01:54:52;;;;;;;;;;;;;;;4.58;83.76;94220.44;4168062;28;20140;-67
2023/12/07 01:56:55;;;;;;;51.10;34.85;;;;;;;4.75;84.34;94217.19;4173708;28;19925;-68
2023/12/07 01:58:57;;;;;;;48.67;34.10;;;;;;;4.99;84.68;94211.59;4175692;28;20479;-65
2023/12/07 02:01:01;;;;;;;48.85;35.25;;;;;;;5.25;83.54;94224.84;4168668;28;20049;-69
2023/12/07 02:03:04;;;;;;;48.72;34.08;;;;;;;5.43;83.37;94211.97;4170574;28;20045;-70
2023/12/07 02:05:07;;;;;;;46.85;34.08;;;;;;;5.57;82.06;94218.50;4160631;28;20053;-69
2023/12/07 02:07:09;;;;;;;47.63;32.65;;;;;;;5.72;81.24;94217.09;4173170;28;20052;-67
2023/12/07 02:09:11;;;;;;;45.83;32.25;;;;;;;5.80;80.91;94212.97;4172160;28;20057;-67
2023/12/07 02:11:13;;;;;;;45.08;32.47;;;;;;;5.93;80.11;94214.28;4177018;28;20123;-69
2023/12/07 02:13:15;;;;;;;48.67;32.58;;;;;;;6.01;79.61;94216.19;4178594;28;20412;-69
2023/12/07 02:15:17;;;;;;;45.40;31.23;;;;;;;6.07;79.05;94204.41;4177026;28;20049;-68
2023/12/07 02:17:34;;;;;;;43.28;31.20;;;;;;;5.95;78.54;94214.97;4179450;28;20484;-66
2023/12/07 02:19:55;;;;;;;48.47;32.20;;;;;;;5.84;78.35;94211.72;4170599;28;20045;-66
2023/12/07 02:22:00;;;;;;;46.45;32.95;;;;;;;5.80;79.29;94205.97;4177545;28;20044;-68
2023/12/07 02:24:03;;;;;;;45.05;32.20;;;;;;;5.79;79.19;94208.75;4187445;28;20056;-69
2023/12/07 02:26:48;;;;;;;41.65;29.95;;;;;;;5.74;79.59;94207.38;4180907;28;20057;-68
2023/12/07 02:28:50;;;;;;;43.17;31.58;;;;;;;5.64;79.08;94197.97;4176016;28;20139;-69
2023/12/07 02:30:52;;;;;;;47.05;32.00;;;;;;;5.36;79.97;94208.28;4178538;28;20049;-68
2023/12/07 02:32:54;;;;;;;44.42;31.85;;;;;;;5.10;80.90;94205.44;4172471;28;20049;-68
2023/12/07 02:34:56;;;;;;;44.60;31.55;;;;;;;4.87;82.22;94208.31;4177550;28;20514;-69
2023/12/07 02:36:58;;;;;;;45.70;31.80;;;;;;;4.95;82.36;94206.81;4172359;28;20052;-69
2023/12/07 02:39:03;;;;;;;48.00;34.40;;;;;;;4.87;82.75;94210.91;4175453;28;20503;-69
2023/12/07 02:41:06;;;;;;;47.65;34.20;;;;;;;4.66;83.77;94205.03;4173827;28;20412;-68
2023/12/07 02:43:08;;;;;;;50.53;34.90;;;;;;;4.74;83.74;94205.16;4176539;28;20071;-68
2023/12/07 02:45:10;;;;;;;49.28;34.40;;;;;;;4.77;83.74;94202.28;4161298;28;20065;-67
2023/12/07 02:47:12;;;;;;;47.63;33.72;;;;;;;4.80;84.11;94194.25;4175069;28;20057;-67
2023/12/07 02:49:14;;;;;;;48.40;34.80;;;;;;;4.79;83.17;94199.56;4177269;28;20597;-67
2023/12/07 02:51:16;;;;;;;47.67;32.85;;;;;;;4.72;83.77;94196.69;4176840;28;20400;-67
2023/12/07 02:53:18;;;;;;;49.25;33.58;;;;;;;4.79;83.82;94208.16;4177989;28;20049;-69
2023/12/07 02:55:20;;;;;;;47.97;32.65;;;;;;;4.69;83.86;94202.19;4177627;28;20053;-68
2023/12/07 02:57:23;;;;;;;44.97;31.98;;;;;;;4.78;83.62;94200.53;4174087;28;20064;-66
2023/12/07 02:59:25;;;;;;;38.50;28.30;;;;;;;4.96;84.06;94192.88;4166936;28;20099;-68
2023/12/07 03:01:26;;;;;;;39.38;28.35;;;;;;;5.16;83.55;94194.50;4171519;28;20052;-67
2023/12/07 03:03:28;;;;;;;37.88;28.00;;;;;;;5.37;83.24;94198.72;4163500;28;20408;-67
2023/12/07 03:05:30;;;;;;;41.63;28.92;;;;;;;5.32;81.35;94193.94;4164260;28;20444;-67
2023/12/07 03:07:33;;;;;;;36.15;27.15;;;;;;;5.09;81.76;94199.41;4176261;28;20106;-69
2023/12/07 03:09:36;;;;;;;38.80;28.83;;;;;;;4.97;81.74;94207.47;4161015;28;20049;-68
2023/12/07 03:11:37;;;;;;;40.63;29.23;;;;;;;4.68;82.89;94210.91;4178115;28;20564;-68
2023/12/07 03:13:39;;;;;;;40.58;29.05;;;;;;;4.58;83.40;94208.31;4167106;28;20057;-67
2023/12/07 03:15:41;;;;;;;38.67;28.15;;;;;;;4.42;84.17;94206.22;4176992;28;20045;-68
2023/12/07 03:17:43;;;;;;;40.67;28.15;;;;;;;4.38;84.24;94217.81;4178269;28;20480;-68
2023/12/07 03:19:45;;;;;;;40.55;28.63;;;;;;;4.36;84.66;94219.72;4177411;28;20052;-67
2023/12/07 03:21:47;;;;;;;42.13;29.00;;;;;;;4.53;84.90;94214.84;4175252;28;20071;-69
2023/12/07 03:23:49;;;;;;;39.78;27.73;;;;;;;4.74;84.35;94215.56;4173790;28;20128;-68
2023/12/07 03:25:51;;;;;;;35.40;25.95;;;;;;;4.97;84.14;94215.28;4168052;28;20095;-72
2023/12/07 03:27:53;;;;;;;35.90;26.67;;;;;;;5.15;83.30;94218.03;4171475;28;20049;-70
2023/12/07 03:29:55;;;;;;;34.55;24.65;;;;;;;5.32;82.58;94219.91;4171359;28;20090;-68
2023/12/07 03:31:57;;;;;;;31.42;24.15;;;;;;;5.45;81.78;94224.81;4171342;28;20081;-69
2023/12/07 03:34:00;;;;;;;32.05;24.58;;;;;;;5.62;81.08;94229.28;4166560;28;20067;-69
2023/12/07 03:36:03;;;;;;;30.63;24.20;;;;;;;5.74;80.77;94232.53;4160455;28;20049;-66
2023/12/07 03:38:05;;;;;;;31.90;23.27;;;;;;;5.83;79.80;94229.09;4167167;28;20174;-70
2023/12/07 03:40:08;;;;;;;31.52;23.00;;;;;;;5.90;79.46;94226.75;4161717;28;20083;-69
2023/12/07 03:42:10;;;;;;;31.20;22.57;;;;;;;5.99;78.63;94225.91;4161652;28;20502;-70
2023/12/07 03:44:32;;;;;;;28.77;21.63;;;;;;;6.04;77.74;94221.09;4167718;28;20266;-71
2023/12/07 03:46:34;;;;;;;29.20;21.58;;;;;;;6.09;78.00;94223.28;4189356;28;20132;-67
2023/12/07 03:48:36;;;;;;;30.10;22.20;;;;;;;6.13;77.53;94219.41;4184048;28;20097;-68
2023/12/07 03:50:38;;;;;;;27.65;20.70;;;;;;;6.25;77.61;94227.88;4174324;28;20114;-68
2023/12/07 03:52:40;;;;;;;26.95;20.98;;;;;;;6.28;77.10;94222.38;4170459;28;20239;-68
2023/12/07 03:54:42;;;;;;;26.77;20.33;;;;;;;6.35;76.54;94219.06;4174652;28;20049;-68
2023/12/07 03:56:44;;;;;;;26.85;19.30;;;;;;;6.38;76.27;94222.34;4164046;28;20045;-68
2023/12/07 03:58:46;;;;;;;26.90;20.15;;;;;;;6.33;75.99;94209.75;4177208;28;20412;-67
2023/12/07 04:00:48;;;;;;;26.58;20.65;;;;;;;6.42;75.90;94216.69;4178233;28;20068;-67
2023/12/07 04:02:50;;;;;;;25.55;20.20;;;;;;;6.43;75.92;94217.50;4172842;28;20045;-66
2023/12/07 04:04:52;;;;;;;26.70;20.20;;;;;;;6.43;75.56;94215.75;4169064;28;20407;-68
2023/12/07 04:06:54;;;;;;;25.92;20.08;;;;;;;6.43;75.12;94209.69;4181251;28;20135;-68
2023/12/07 04:08:56;;;;;;;26.48;20.75;;;;;;;6.43;74.75;94220.94;4166897;28;20507;-67
2023/12/07 04:10:58;;;;;;;27.25;20.65;;;;;;;6.48;74.82;94213.50;4172926;28;20041;-68
2023/12/07 04:12:59;;;;;;;27.23;20.38;;;;;;;6.46;75.27;94214.63;4173741;28;20041;-67
2023/12/07 04:15:01;;;;;;;25.02;20.15;;;;;;;6.43;74.96;94222.69;4168325;28;20129;-67
2023/12/07 04:17:03;;;;;;;26.02;19.63;;;;;;;6.43;75.02;94213.13;4175899;28;20060;-67
2023/12/07 04:19:05;;;;;;;27.23;19.70;;;;;;;6.49;75.10;94227.31;4167753;28;20512;-68
2023/12/07 04:21:07;;;;;;;25.02;19.48;;;;;;;6.45;74.90;94224.19;4166912;28;20204;-68
2023/12/07 04:23:09;;;;;;;25.08;19.77;;;;;;;6.46;74.80;94231.06;4166103;28;20084;-68
2023/12/07 04:25:11;;;;;;;25.90;18.90;;;;;;;6.45;75.25;94223.38;4176909;28;20059;-67
2023/12/07 04:27:13;;;;;;;24.73;18.85;;;;;;;6.46;74.93;94238.03;4176624;28;20238;-67
2023/12/07 04:29:16;;;;;;;24.40;18.60;;;;;;;6.45;74.84;94239.81;4175443;28;20053;-69
2023/12/07 04:31:18;;;;;;;26.83;20.10;;;;;;;6.46;75.00;94245.84;4176448;28;20053;-69
2023/12/07 04:33:20;;;;;;;25.23;18.67;;;;;;;6.45;74.71;94244.19;4174938;28;20417;-68
2023/12/07 04:35:22;;;;;;;24.77;19.17;;;;;;;6.50;74.91;94249.81;4166691;28;20543;-68
2023/12/07 04:37:24;;;;;;;25.23;19.63;;;;;;;6.44;75.19;94250.38;4160592;28;20050;-67
2023/12/07 04:39:26;;;;;;;21.77;17.70;;;;;;;6.43;75.41;94246.97;4165765;28;20053;-67
2023/12/07 04:41:28;;;;;;;22.33;18.15;;;;;;;6.41;74.97;94251.50;4172754;28;20517;-68
2023/12/07 04:43:30;;;;;;;25.17;18.48;;;;;;;6.39;75.22;94250.81;4169738;28;20093;-69
2023/12/07 04:45:32;;;;;;;25.65;20.08;;;;;;;6.40;75.44;94255.03;4186023;28;20080;-68
2023/12/07 04:47:34;;;;;;;26.95;19.80;;;;;;;6.40;75.18;94246.41;4162072;28;20049;-69
2023/12/07 04:49:36;;;;;;;25.45;19.83;;;;;;;6.41;75.20;94246.28;4173468;28;20127;-69
2023/12/07 04:51:38;;;;;;;27.17;19.52;;;;;;;6.48;75.19;94255.16;4164765;28;20049;-70
2023/12/07 04:53:40;;;;;;;23.70;18.85;;;;;;;6.41;75.27;94248.88;4169828;28;20107;-67
2023/12/07 04:55:46;;;;;;;25.80;19.92;;;;;;;6.40;75.24;94247.22;4164834;28;20061;-69
2023/12/07 04:57:48;;;;;;;24.83;20.00;;;;;;;6.40;75.21;94256.81;4167876;28;20055;-70
2023/12/07 04:59:50;;;;;;;25.38;20.25;;;;;;;6.43;75.13;94248.72;4162612;28;20042;-68
2023/12/07 05:01:52;;;;;;;30.17;22.48;;;;;;;6.25;74.85;94253.88;4172392;28;20377;-71
2023/12/07 05:03:54;;;;;;;27.02;21.50;;;;;;;6.14;75.98;94255.69;4174695;28;20049;-70
2023/12/07 05:05:56;;;;;;;28.85;21.90;;;;;;;6.13;76.09;94256.66;4176697;28;20049;-69
2023/12/07 05:07:58;;;;;;;28.48;22.20;;;;;;;6.15;76.45;94254.75;4180642;28;20064;-69
2023/12/07 05:10:00;;;;;;;25.95;21.70;;;;;;;6.24;76.20;94258.28;4180679;28;20130;-70
2023/12/07 05:12:02;;;;;;;25.95;21.83;;;;;;;6.21;75.93;94257.72;4180081;28;20394;-69
2023/12/07 05:14:04;;;;;;;31.88;21.88;;;;;;;6.26;76.02;94268.50;4178817;28;20065;-69
2023/12/07 05:16:08;;;;;;;26.73;21.63;;;;;;;6.28;75.90;94269.19;4180029;28;20107;-69
2023/12/07 05:18:10;;;;;;;28.75;22.55;;;;;;;6.32;75.87;94271.38;4179700;28;20158;-68
2023/12/07 05:20:12;;;;;;;28.60;22.92;;;;;;;6.35;75.90;94271.09;4178494;28;20092;-69
2023/12/07 05:22:14;;;;;;;29.83;22.65;;;;;;;6.38;75.32;94269.97;4178791;28;20051;-67
2023/12/07 05:24:17;;;;;;;26.38;22.08;;;;;;;6.36;75.49;94269.31;4191588;28;20136;-69
2023/12/07 05:26:18;;;;;;;22.48;18.70;;;;;;;5.97;75.64;94272.03;4176677;28;20076;-72
2023/12/07 05:28:20;;;;;;;28.02;23.08;;;;;;;5.87;76.42;94269.47;4175592;28;20183;-70
2023/12/07 05:30:22;;;;;;;29.95;23.05;;;;;;;5.79;77.34;94286.72;4173261;28;20059;-70
2023/12/07 05:32:24;;;;;;;30.42;22.95;;;;;;;5.84;77.61;94280.13;4178845;28;20044;-70
2023/12/07 05:34:27;;;;;;;28.73;22.85;;;;;;;5.95;77.22;94281.75;4171077;28;20067;-70
2023/12/07 05:36:29;;;;;;;27.30;21.80;;;;;;;6.06;77.08;94286.78;4172681;28;20072;-70
2023/12/07 05:38:30;;;;;;;28.90;22.90;;;;;;;6.17;76.76;94282.38;4179994;28;20044;-70
2023/12/07 05:40:33;;;;;;;26.98;21.45;;;;;;;6.27;76.24;94286.59;4170549;28;20545;-69
2023/12/07 05:42:35;;;;;;;26.47;20.97;;;;;;;6.32;75.90;94279.19;4178419;28;20064;-70
2023/12/07 05:44:37;;;;;;;26.30;21.90;;;;;;;6.40;75.44;94277.66;4181147;28;20049;-70
2023/12/07 05:46:43;;;;;;;25.83;21.90;;;;;;;6.46;75.29;94284.88;4178923;28;20081;-71
2023/12/07 05:48:46;;;;;;;27.73;21.30;;;;;;;6.52;74.79;94290.31;4178285;28;20100;-69
2023/12/07 05:50:49;;;;;;;26.30;20.20;;;;;;;6.55;74.70;94286.59;4168161;28;20075;-69
2023/12/07 05:52:51;;;;;;;26.48;20.95;;;;;;;6.53;74.21;94289.34;4163679;28;20046;-71
2023/12/07 05:54:53;;;;;;;25.00;20.08;;;;;;;6.51;74.70;94285.25;4164207;28;20132;-69
2023/12/07 05:56:55;;;;;;;23.70;18.80;;;;;;;6.51;74.49;94286.06;4166406;28;20084;-68
2023/12/07 05:58:57;;;;;;;25.63;19.58;;;;;;;6.56;74.32;94290.88;4174950;28;20511;-70
2023/12/07 06:01:01;;;;;;;25.13;20.05;;;;;;;6.56;74.55;94290.88;4177996;28;20048;-69
2023/12/07 06:03:03;;;;;;;23.30;19.30;;;;;;;6.58;74.13;94291.50;4169196;28;20110;-72
2023/12/07 06:05:06;;;;;;;26.08;19.00;;;;;;;6.56;73.90;94293.47;4174554;28;20052;-71
2023/12/07 06:07:08;;;;;;;27.13;20.08;;;;;;;6.55;74.53;94292.63;4178660;28;20049;-70
2023/12/07 06:09:10;;;;;;;25.60;19.05;;;;;;;6.58;74.35;94291.50;4178053;28;20408;-71
2023/12/07 06:11:12;;;;;;;23.83;18.58;;;;;;;6.56;74.23;94296.88;4179562;28;20128;-69
2023/12/07 06:13:14;;;;;;;24.42;18.88;;;;;;;6.55;74.49;94303.03;4179365;28;20053;-71
2023/12/07 06:15:16;;;;;;;29.00;19.88;;;;;;;6.48;74.88;94299.38;4170718;28;20045;-70
2023/12/07 06:17:21;;;;;;;24.48;19.23;;;;;;;6.50;75.01;94292.25;4176200;28;20048;-70
2023/12/07 06:19:22;;;;;;;25.73;19.77;;;;;;;6.32;74.71;94300.00;4169404;28;20049;-70
2023/12/07 06:21:27;;;;;;;23.13;18.55;;;;;;;5.92;75.79;94302.81;4177402;28;20045;-71
2023/12/07 06:23:29;;;;;;;24.42;18.90;;;;;;;5.83;77.02;94301.03;4178256;28;20045;-69
2023/12/07 06:25:30;;;;;;;26.05;19.65;;;;;;;5.82;76.94;94304.63;4171354;28;20045;-72
2023/12/07 06:27:33;;;;;;;27.80;20.90;;;;;;;5.79;77.29;94305.72;4177485;28;20041;-71
2023/12/07 06:29:35;;;;;;;27.77;20.17;;;;;;;5.87;77.66;94302.41;4179381;28;20167;-71
2023/12/07 06:31:43;;;;;;;25.92;19.52;;;;;;;6.08;77.06;94305.66;4179480;28;20472;-71
2023/12/07 06:33:45;;;;;;;28.88;19.75;;;;;;;6.20;76.50;94295.13;4178580;28;20049;-70
2023/12/07 06:35:48;;;;;;;26.50;19.35;;;;;;;6.35;75.96;94306.69;4172531;28;20049;-71
2023/12/07 06:37:49;;;;;;;25.25;18.70;;;;;;;6.44;75.46;94310.22;4175744;28;20059;-70
2023/12/07 06:39:51;;;;;;;28.83;19.85;;;;;;;6.46;74.77;94311.72;4170738;28;20049;-69
2023/12/07 06:41:55;;;;;;;26.35;19.65;;;;;;;6.53;75.14;94312.78;4166565;28;20116;-69
2023/12/07 06:43:57;;;;;;;26.00;19.55;;;;;;;6.57;74.93;94318.50;4166150;28;20087;-69
2023/12/07 06:46:00;;;;;;;23.45;19.23;;;;;;;6.63;74.46;94315.34;4179345;28;20071;-71
2023/12/07 06:48:02;;;;;;;23.50;19.27;;;;;;;6.69;74.07;94316.53;4166686;28;20075;-71
2023/12/07 06:50:08;;;;;;;23.17;19.27;;;;;;;6.73;74.35;94320.47;4179617;28;20053;-73
2023/12/07 06:52:11;;;;;;;27.45;20.65;;;;;;;6.72;74.42;94324.06;4179289;28;20053;-70
2023/12/07 06:54:13;;;;;;;32.25;22.98;;;;;;;6.76;74.04;94322.81;4165484;28;20049;-71
2023/12/07 06:56:15;;;;;;;26.08;21.58;;;;;;;6.62;74.03;94326.69;4177902;28;20066;-69
2023/12/07 06:58:17;;;;;;;27.73;21.20;;;;;;;6.43;74.99;94322.41;4172248;28;20464;-70
2023/12/07 07:00:20;;;;;;;24.38;18.75;;;;;;;6.46;75.11;94322.13;4173566;28;20532;-72
2023/12/07 07:02:23;;;;;;;21.63;17.55;;;;;;;6.24;75.20;94323.31;4167574;28;20049;-71
2023/12/07 07:04:25;;;;;;;22.30;18.17;;;;;;;6.21;75.54;94325.34;4175593;28;20045;-69
2023/12/07 07:06:26;;;;;;;26.88;19.30;;;;;;;6.00;75.92;94321.19;4166736;28;20049;-69
2023/12/07 07:08:28;;;;;;;23.98;19.83;;;;;;;5.88;76.94;94323.06;4171536;28;20415;-71
2023/12/07 07:10:30;;;;;;;25.80;18.77;;;;;;;5.75;77.13;94325.97;4179793;28;20060;-71
2023/12/07 07:12:32;;;;;;;33.67;22.48;;;;;;;5.90;77.18;94334.16;4177330;28;20045;-69
2023/12/07 07:14:34;;;;;;;24.38;18.20;;;;;;;6.02;76.70;94334.03;4174903;28;20045;-69
2023/12/07 07:16:44;;;;;;;29.55;19.20;;;;;;;6.14;76.32;94332.91;4165210;28;20103;-70
2023/12/07 07:18:47;;;;;;;24.48;18.80;;;;;;;6.20;75.61;94332.34;4165398;28;20060;-71
2023/12/07 07:20:49;;;;;;;25.85;19.60;;;;;;;6.29;75.56;94334.09;4166224;28;20041;-72
2023/12/07 07:22:50;;;;;;;24.98;17.70;;;;;;;6.38;75.57;94327.22;4177772;28;20502;-70
2023/12/07 07:24:52;;;;;;;24.75;18.98;;;;;;;6.44;75.40;94336.25;4177942;28;20055;-70
2023/12/07 07:26:54;;;;;;;25.02;18.50;;;;;;;6.43;75.23;94331.97;4178054;28;20047;-72
2023/12/07 07:28:56;;;;;;;23.40;17.63;;;;;;;6.49;75.22;94334.84;4177676;28;20049;-70
2023/12/07 07:30:58;;;;;;;23.35;17.77;;;;;;;6.53;74.67;94340.59;4176469;28;20063;-70
2023/12/07 07:33:01;;;;;;;30.88;20.73;;;;;;;6.55;74.78;94333.44;4164395;28;20420;-71
2023/12/07 07:35:03;;;;;;;29.15;21.77;;;;;;;6.22;75.73;94347.81;4177204;28;20041;-70
2023/12/07 07:37:06;;;;;;;27.58;21.42;;;;;;;6.25;75.94;94340.53;4178608;28;20128;-71
2023/12/07 07:39:08;;;;;;;26.58;20.38;;;;;;;6.32;76.16;94346.00;4166275;28;20060;-71
2023/12/07 07:41:11;;;;;;;23.58;19.23;;;;;;;5.59;77.43;94343.88;4163888;28;20120;-71
2023/12/07 07:43:13;;;;;;;29.83;21.70;;;;;;;5.40;79.00;94354.28;4160278;28;20071;-70
2023/12/07 07:45:15;;;;;;;26.90;19.35;;;;;;;5.18;79.65;94350.97;4174835;28;20063;-71
2023/12/07 07:47:17;;;;;;;20.88;16.50;;;;;;;4.77;81.77;94367.56;4178256;28;20049;-71
2023/12/07 07:49:19;;;;;;;18.50;14.65;;;;;;;4.59;81.20;94372.56;4174952;28;20068;-70
2023/12/07 07:51:21;;;;;;;19.77;14.10;;;;;;;4.41;82.35;94370.59;4174865;28;20053;-70
2023/12/07 07:53:22;;;;;;;19.30;14.38;;;;;;;4.47;82.42;94369.22;4176296;28;20049;-69
2023/12/07 07:55:25;;;;;;;18.88;13.23;;;;;;;4.44;82.92;94369.50;4174133;28;20052;-70
2023/12/07 07:57:27;;;;;;;18.15;12.93;;;;;;;4.44;81.94;94370.31;4172981;28;20055;-72
2023/12/07 07:59:30;;;;;;;17.73;13.75;;;;;;;4.23;82.44;94366.94;4174360;28;20476;-71
2023/12/07 08:01:32;;;;;;;18.55;13.98;;;;;;;4.31;82.90;94380.06;4179115;28;20446;-72
2023/12/07 08:03:34;;;;;;;18.90;14.75;;;;;;;4.09;83.31;94374.09;4174076;28;20059;-71
2023/12/07 08:05:36;;;;;;;18.45;14.63;;;;;;;4.14;83.77;94372.88;4171856;28;20052;-71
2023/12/07 08:07:39;;;;;;;18.63;14.23;;;;;;;4.21;83.80;94386.97;4176857;28;20049;-70
2023/12/07 08:09:41;;;;;;;19.15;13.85;;;;;;;3.98;84.07;94384.53;4178850;28;20045;-70
2023/12/07 08:11:43;;;;;;;17.52;14.60;;;;;;;4.07;84.19;94378.59;4177462;28;20063;-71
2023/12/07 08:13:45;;;;;;;15.82;12.68;;;;;;;3.99;83.88;94387.94;4176933;28;20053;-69
2023/12/07 08:15:47;;;;;;;15.45;11.05;;;;;;;3.95;84.52;94383.97;4164583;28;20080;-70
2023/12/07 08:17:48;;;;;;;12.73;10.63;;;;;;;3.90;84.40;94390.34;4177632;28;20041;-70
2023/12/07 08:19:50;;;;;;;15.38;11.70;;;;;;;3.80;83.89;94399.00;4169193;28;20532;-70
2023/12/07 08:21:53;;;;;;;16.38;12.77;;;;;;;3.73;84.28;94397.84;4173660;28;20102;-71
2023/12/07 08:23:54;;;;;;;14.90;10.80;;;;;;;3.93;85.00;94393.63;4176924;28;20037;-70
2023/12/07 08:25:57;;;;;;;13.27;9.82;;;;;;;4.09;83.55;94402.59;4179029;28;20496;-72
2023/12/07 08:27:59;;;;;;;25.75;17.35;;;;;;;4.17;82.47;94404.53;4176082;28;20099;-70
2023/12/07 08:30:01;;;;;;;34.25;18.77;;;;;;;4.06;82.37;94402.03;4177615;28;20052;-68
2023/12/07 08:32:03;;;;;;;19.13;11.90;;;;;;;3.75;82.64;94414.09;4170440;28;20049;-72
2023/12/07 08:34:05;;;;;;;15.65;10.63;;;;;;;3.96;83.34;94407.16;4162723;28;20473;-71
2023/12/07 08:36:08;;;;;;;34.22;21.13;;;;;;;4.05;82.19;94400.41;4162215;28;20061;-70
2023/12/07 08:38:10;;;;;;;17.05;12.95;;;;;;;4.16;82.17;94408.09;4162516;28;20166;-69
2023/12/07 08:40:15;;;;;;;30.20;17.63;;;;;;;4.12;81.46;94411.09;4164211;28;20485;-70
2023/12/07 08:42:17;;;;;;;29.25;16.33;;;;;;;4.18;81.85;94410.56;4178226;28;20052;-69
2023/12/07 08:44:19;;;;;;;37.78;18.75;;;;;;;4.40;81.13;94409.59;4168034;28;20049;-70
2023/12/07 08:46:21;;;;;;;12.63;8.20;;;;;;;4.41;79.65;94416.41;4179437;28;20052;-72
2023/12/07 08:48:23;;;;;;;7.85;6.35;;;;;;;4.40;79.22;94415.59;4181379;28;20045;-69
2023/12/07 08:50:25;;;;;;;7.78;6.75;;;;;;;4.38;79.32;94414.09;4175839;28;20480;-71
2023/12/07 08:52:27;;;;;;;5.85;5.15;;;;;;;4.44;78.93;94416.19;4175882;28;20465;-71
2023/12/07 08:54:46;;;;;;;6.38;5.45;;;;;;;4.49;78.78;94419.19;4176715;28;20068;-72
2023/12/07 08:56:48;;;;;;;5.27;4.37;;;;;;;4.61;77.95;94423.38;4176796;28;20523;-71
2023/12/07 08:58:51;;;;;;;5.57;4.10;;;;;;;4.77;77.80;94417.69;4177254;28;20103;-70
2023/12/07 09:00:53;;;;;;;5.13;4.10;;;;;;;4.75;76.76;94417.00;4175374;28;20052;-70
2023/12/07 09:02:55;;;;;;;5.05;4.00;;;;;;;4.67;76.96;94428.03;4173602;28;20037;-71
2023/12/07 09:04:57;;;;;;;4.40;3.90;;;;;;;4.59;76.79;94420.06;4177611;28;20385;-71
2023/12/07 09:06:59;;;;;;;5.18;4.22;;;;;;;4.71;77.56;94421.63;4169867;28;20041;-70
2023/12/07 09:09:01;;;;;;;3.60;3.08;;;;;;;4.81;76.54;94429.44;4178320;28;20052;-70
2023/12/07 09:11:04;;;;;;;5.03;4.15;;;;;;;4.78;76.14;94418.53;4180489;28;20476;-71
2023/12/07 09:13:06;;;;;;;4.53;3.70;;;;;;;4.74;76.52;94427.53;4180092;28;20075;-68
2023/12/07 09:15:09;;;;;;;4.38;3.85;;;;;;;4.77;76.15;94425.47;4195842;28;20557;-71
2023/12/07 09:17:12;;;;;;;3.67;3.05;;;;;;;4.81;75.69;94424.25;4178567;28;20102;-71
2023/12/07 09:19:14;;;;;;;5.22;3.50;;;;;;;4.64;76.62;94425.69;4179725;28;20082;-70
2023/12/07 09:21:16;;;;;;;4.38;3.42;;;;;;;4.60;75.23;94415.69;4179691;28;20049;-71
2023/12/07 09:23:18;;;;;;;5.20;3.97;;;;;;;4.44;76.63;94424.78;4179196;28;20195;-69
2023/12/07 09:25:21;;;;;;;3.80;3.30;;;;;;;4.60;76.75;94415.69;4179886;28;20126;-71
2023/12/07 09:27:23;;;;;;;3.60;2.70;;;;;;;4.66;76.29;94415.19;4178814;28;20049;-70
2023/12/07 09:29:25;;;;;;;4.45;3.40;;;;;;;4.70;75.51;94421.75;4179491;28;20057;-71
2023/12/07 09:31:27;;;;;;;3.92;2.55;;;;;;;4.64;75.77;94422.28;4180553;28;20049;-72